Time;durP1;ratioP1;P1;durP2;ratioP2;P2;SDS_P1;SDS_P2;PMS_P1;PMS_P2;Temp;Humidity;BMP_temperature;BMP_pressure;BME280_temperature;BME280_humidity;BME280_pressure;Samples;Min_cycle;Max_cycle;Signal;HPM_P1;HPM_P2
2023/06/27 00:01:06;;;;;;;15.02;4.35;;;17.80;71.10;;;;;;5006074;28;20380;-75
2023/06/27 00:03:36;;;;;;;13.77;4.32;;;17.80;71.30;;;;;;5002752;28;20479;-75
2023/06/27 00:06:04;;;;;;;12.02;3.55;;;17.80;71.20;;;;;;5003025;28;20025;-75
2023/06/27 00:08:33;;;;;;;13.80;3.95;;;17.80;71.20;;;;;;5008833;28;20072;-77
2023/06/27 00:10:59;;;;;;;15.45;4.13;;;17.80;71.30;;;;;;5006710;28;20125;-75
2023/06/27 00:13:25;;;;;;;12.73;4.35;;;17.80;71.30;;;;;;5003485;28;20049;-75
2023/06/27 00:15:52;;;;;;;12.27;4.03;;;17.80;71.30;;;;;;5005715;28;20417;-75
2023/06/27 00:18:22;;;;;;;12.70;3.90;;;17.80;71.30;;;;;;5003233;28;20017;-74
2023/06/27 00:20:51;;;;;;;18.00;4.22;;;17.70;71.80;;;;;;5015739;28;20038;-76
2023/06/27 00:23:22;;;;;;;13.13;4.00;;;17.70;71.70;;;;;;5007587;28;20065;-75
2023/06/27 00:25:48;;;;;;;15.18;3.83;;;17.70;72.10;;;;;;5000061;28;20437;-74
2023/06/27 00:28:14;;;;;;;14.30;4.22;;;17.60;72.60;;;;;;5005848;28;20030;-76
2023/06/27 00:30:40;;;;;;;13.48;3.53;;;17.60;72.90;;;;;;5007695;28;20037;-78
2023/06/27 00:33:06;;;;;;;12.75;3.50;;;17.60;72.80;;;;;;5006830;28;20030;-74
2023/06/27 00:49:20;;;;;;;15.77;4.22;;;17.40;74.00;;;;;;4970383;28;20399;-74
2023/06/27 00:51:50;;;;;;;16.58;4.50;;;17.30;74.50;;;;;;4987399;28;20490;-75
2023/06/27 00:54:17;;;;;;;13.80;3.95;;;17.20;74.60;;;;;;4986568;28;20487;-74
2023/06/27 00:56:43;;;;;;;16.25;4.60;;;17.20;74.70;;;;;;4976121;28;20311;-77
2023/06/27 00:59:09;;;;;;;12.45;3.63;;;17.20;74.70;;;;;;4997472;28;20037;-73
2023/06/27 01:01:35;;;;;;;16.55;4.97;;;17.20;74.90;;;;;;4979857;28;20053;-77
2023/06/27 01:04:01;;;;;;;17.15;4.45;;;17.10;75.00;;;;;;4989627;28;20335;-74
2023/06/27 01:06:35;;;;;;;15.73;3.83;;;17.10;75.40;;;;;;4995122;28;20072;-73
2023/06/27 01:09:31;;;;;;;15.43;4.60;;;17.00;75.60;;;;;;5006042;28;20018;-74
2023/06/27 01:12:04;;;;;;;13.43;4.15;;;17.00;75.60;;;;;;5009320;28;20076;-74
2023/06/27 01:14:33;;;;;;;14.05;3.67;;;17.00;75.80;;;;;;5012454;28;20091;-75
2023/06/27 01:17:00;;;;;;;15.60;4.57;;;17.00;75.80;;;;;;5008059;28;20064;-74
2023/06/27 01:19:30;;;;;;;15.45;4.00;;;17.00;75.80;;;;;;5017868;28;20053;-75
2023/06/27 01:22:03;;;;;;;15.00;4.97;;;16.90;75.90;;;;;;5003277;28;20108;-76
2023/06/27 01:24:29;;;;;;;17.92;4.55;;;16.90;76.10;;;;;;5006916;28;20112;-73
2023/06/27 01:26:55;;;;;;;16.50;4.95;;;16.90;76.40;;;;;;5002922;28;20034;-77
2023/06/27 01:29:21;;;;;;;15.80;4.03;;;16.90;76.30;;;;;;5010495;28;20047;-74
2023/06/27 01:31:56;;;;;;;17.08;4.82;;;16.90;76.50;;;;;;5001989;28;20030;-75
2023/06/27 01:34:49;;;;;;;18.08;4.60;;;16.90;76.70;;;;;;4981982;28;20112;-76
2023/06/27 01:37:39;;;;;;;15.48;4.72;;;16.90;76.70;;;;;;4980257;28;20031;-75
2023/06/27 01:40:17;;;;;;;19.30;5.22;;;16.90;76.60;;;;;;4985426;28;20033;-74
2023/06/27 01:42:46;;;;;;;17.15;5.00;;;16.90;76.90;;;;;;4984752;28;20085;-77
2023/06/27 01:45:14;;;;;;;12.80;3.90;;;16.90;76.70;;;;;;4985709;28;20049;-75
2023/06/27 01:47:42;;;;;;;14.90;4.22;;;16.80;77.10;;;;;;4987094;28;20050;-74
2023/06/27 01:50:09;;;;;;;14.95;4.93;;;16.80;77.30;;;;;;4977630;28;20495;-74
2023/06/27 01:52:35;;;;;;;15.20;4.80;;;16.80;77.30;;;;;;4990254;28;20037;-74
2023/06/27 01:55:02;;;;;;;15.90;5.05;;;16.80;77.30;;;;;;4981719;28;20350;-73
2023/06/27 01:57:28;;;;;;;18.27;4.78;;;16.80;77.70;;;;;;4988195;28;20037;-75
2023/06/27 01:59:54;;;;;;;17.33;4.50;;;16.80;77.50;;;;;;4978292;28;20335;-76
2023/06/27 02:02:20;;;;;;;14.27;3.67;;;16.80;77.60;;;;;;4974754;28;20035;-74
2023/06/27 02:04:46;;;;;;;18.83;4.78;;;16.80;77.70;;;;;;4982205;28;20337;-75
2023/06/27 02:07:12;;;;;;;15.18;4.63;;;16.80;78.00;;;;;;4975507;28;20035;-76
2023/06/27 02:09:37;;;;;;;17.25;4.55;;;16.80;77.80;;;;;;4987046;28;20038;-73
2023/06/27 02:12:04;;;;;;;21.25;4.78;;;16.80;77.60;;;;;;4991545;28;20065;-74
2023/06/27 02:14:33;;;;;;;16.67;4.60;;;16.90;77.60;;;;;;4980296;28;20038;-75
2023/06/27 02:16:58;;;;;;;15.13;4.95;;;16.90;77.60;;;;;;4992413;28;20052;-74
2023/06/27 02:19:24;;;;;;;19.90;5.15;;;16.80;77.80;;;;;;4987594;28;20481;-77
2023/06/27 02:21:50;;;;;;;15.75;4.68;;;16.90;77.80;;;;;;4984549;28;20056;-75
2023/06/27 02:24:16;;;;;;;13.60;4.65;;;16.90;77.90;;;;;;4986883;28;20368;-76
2023/06/27 02:26:43;;;;;;;18.25;5.47;;;17.00;77.70;;;;;;4982425;28;20105;-74
2023/06/27 02:29:08;;;;;;;17.05;4.97;;;16.90;77.80;;;;;;4976904;28;20042;-74
2023/06/27 02:31:34;;;;;;;18.27;5.18;;;16.90;77.90;;;;;;4985138;28;20026;-74
2023/06/27 02:34:01;;;;;;;16.45;4.78;;;16.90;77.70;;;;;;4985250;28;20595;-75
2023/06/27 02:36:27;;;;;;;14.00;5.00;;;16.90;78.00;;;;;;4981516;28;20534;-75
2023/06/27 02:38:54;;;;;;;15.15;5.60;;;16.90;77.90;;;;;;4980964;28;20122;-75
2023/06/27 02:41:24;;;;;;;16.63;4.82;;;17.00;77.80;;;;;;4978341;28;20038;-74
2023/06/27 02:43:50;;;;;;;18.75;5.00;;;17.00;77.80;;;;;;4975735;28;20031;-78
2023/06/27 02:46:16;;;;;;;12.32;4.70;;;17.10;77.50;;;;;;4981827;28;20064;-74
2023/06/27 02:48:42;;;;;;;20.13;5.70;;;17.00;77.60;;;;;;4995929;28;20478;-76
2023/06/27 02:51:07;;;;;;;15.60;5.03;;;17.00;77.90;;;;;;5001229;28;20049;-74
2023/06/27 02:53:33;;;;;;;22.05;5.82;;;17.00;77.90;;;;;;5000365;28;20030;-75
2023/06/27 02:56:02;;;;;;;17.10;5.50;;;17.00;77.70;;;;;;4997142;28;20045;-74
2023/06/27 02:58:29;;;;;;;16.52;5.97;;;17.00;77.70;;;;;;4984308;28;20375;-73
2023/06/27 03:00:55;;;;;;;16.92;5.53;;;17.00;77.80;;;;;;4982622;28;20037;-74
2023/06/27 03:03:20;;;;;;;17.85;5.93;;;16.90;78.00;;;;;;5009089;28;20026;-73
2023/06/27 03:05:46;;;;;;;22.55;6.03;;;16.90;78.20;;;;;;5006159;28;20359;-78
2023/06/27 03:08:11;;;;;;;16.63;6.30;;;16.90;78.40;;;;;;5010801;28;20064;-77
2023/06/27 03:10:37;;;;;;;15.63;5.60;;;16.80;78.60;;;;;;4999195;28;20470;-74
2023/06/27 03:13:03;;;;;;;14.93;5.50;;;16.80;78.80;;;;;;5008875;28;20026;-77
2023/06/27 03:15:29;;;;;;;18.63;6.22;;;16.80;78.80;;;;;;4993253;28;20119;-74
2023/06/27 03:17:54;;;;;;;21.13;6.78;;;16.80;78.90;;;;;;5001811;28;20391;-78
2023/06/27 03:20:21;;;;;;;18.38;6.00;;;16.70;79.00;;;;;;5018489;28;20053;-76
2023/06/27 03:22:47;;;;;;;15.38;5.30;;;16.80;79.10;;;;;;5012207;28;20492;-76
2023/06/27 03:25:13;;;;;;;17.88;5.63;;;16.80;79.00;;;;;;5004431;28;20032;-74
2023/06/27 03:27:39;;;;;;;18.17;5.35;;;16.80;79.10;;;;;;5006001;28;20450;-74
2023/06/27 03:30:07;;;;;;;20.70;6.20;;;16.80;79.00;;;;;;5001582;28;20030;-74
2023/06/27 03:32:33;;;;;;;19.83;5.20;;;16.80;78.70;;;;;;4990389;28;20053;-74
2023/06/27 03:34:59;;;;;;;20.02;5.47;;;16.70;79.20;;;;;;4981985;28;20030;-74
2023/06/27 03:37:24;;;;;;;17.15;5.30;;;16.70;79.10;;;;;;4984606;28;20125;-74
2023/06/27 03:39:50;;;;;;;20.02;6.03;;;16.60;79.40;;;;;;4982645;28;20049;-75
2023/06/27 03:42:16;;;;;;;15.80;5.97;;;16.60;79.50;;;;;;4980925;28;20030;-74
2023/06/27 03:44:42;;;;;;;19.70;5.70;;;16.60;79.60;;;;;;4979281;28;20034;-75
2023/06/27 03:47:08;;;;;;;15.38;6.68;;;16.50;79.70;;;;;;4984464;28;20029;-75
2023/06/27 03:49:33;;;;;;;17.13;5.68;;;16.50;79.80;;;;;;4983375;28;20030;-74
2023/06/27 03:51:59;;;;;;;22.70;6.28;;;16.50;79.80;;;;;;4979324;28;20038;-77
2023/06/27 03:54:25;;;;;;;18.52;5.88;;;16.50;79.90;;;;;;4980606;28;20036;-76
2023/06/27 03:56:51;;;;;;;16.60;5.38;;;16.50;80.10;;;;;;4984732;28;20026;-75
2023/06/27 03:59:16;;;;;;;17.45;5.88;;;16.50;80.00;;;;;;4978632;28;21041;-73
2023/06/27 04:01:42;;;;;;;18.70;5.63;;;16.60;79.80;;;;;;4982747;28;20042;-76
2023/06/27 04:04:08;;;;;;;24.73;7.13;;;16.60;79.80;;;;;;4983672;28;20059;-74
2023/06/27 04:06:34;;;;;;;19.00;5.88;;;16.60;79.90;;;;;;4990031;28;20073;-74
2023/06/27 04:09:02;;;;;;;18.88;6.07;;;16.70;79.80;;;;;;4975409;28;20031;-74
2023/06/27 04:11:28;;;;;;;18.40;6.63;;;16.70;79.70;;;;;;4979364;28;20412;-74
2023/06/27 04:13:54;;;;;;;17.23;5.57;;;16.80;79.50;;;;;;4985900;28;20046;-74
2023/06/27 04:16:20;;;;;;;13.40;4.63;;;16.90;79.20;;;;;;4980001;28;20060;-74
2023/06/27 04:18:46;;;;;;;20.15;6.57;;;16.90;79.10;;;;;;4982742;28;20484;-75
2023/06/27 04:21:11;;;;;;;19.13;6.90;;;16.90;79.10;;;;;;4982138;28;20057;-78
2023/06/27 04:23:37;;;;;;;16.00;5.60;;;17.00;79.10;;;;;;4979101;28;20035;-74
2023/06/27 04:26:05;;;;;;;19.58;6.53;;;17.00;79.20;;;;;;4987097;28;20136;-73
2023/06/27 04:28:33;;;;;;;22.42;6.60;;;17.00;79.20;;;;;;4979055;28;20175;-74
2023/06/27 04:31:00;;;;;;;19.95;5.72;;;17.10;78.80;;;;;;4981373;28;20069;-75
2023/06/27 04:33:27;;;;;;;18.20;6.03;;;17.10;79.00;;;;;;4986800;28;20029;-75
2023/06/27 04:36:01;;;;;;;15.85;6.95;;;17.20;78.70;;;;;;4979900;28;20034;-76
2023/06/27 04:38:29;;;;;;;22.13;6.28;;;17.20;78.30;;;;;;4977528;28;20030;-77
2023/06/27 04:40:55;;;;;;;19.27;6.53;;;17.20;78.50;;;;;;4977615;28;20405;-76
2023/06/27 04:43:20;;;;;;;18.88;6.75;;;17.30;78.80;;;;;;4980146;28;20041;-78
2023/06/27 04:45:46;;;;;;;19.85;6.40;;;17.40;78.20;;;;;;4975082;28;20030;-77
2023/06/27 04:48:12;;;;;;;17.83;6.40;;;17.40;78.40;;;;;;4983969;28;20092;-77
2023/06/27 04:50:37;;;;;;;25.20;7.53;;;17.60;78.10;;;;;;4988233;28;20033;-75
2023/06/27 04:53:06;;;;;;;17.48;6.80;;;17.60;77.30;;;;;;4980232;28;20376;-74
2023/06/27 04:55:32;;;;;;;17.25;6.18;;;17.60;77.90;;;;;;4983787;28;20028;-75
2023/06/27 04:57:58;;;;;;;18.83;6.10;;;17.60;78.00;;;;;;4983667;28;20077;-76
2023/06/27 05:00:24;;;;;;;19.63;7.70;;;17.60;77.70;;;;;;4984880;28;20083;-76
2023/06/27 05:02:50;;;;;;;28.45;8.27;;;17.70;77.60;;;;;;4992701;28;20524;-74
2023/06/27 05:05:16;;;;;;;27.55;8.35;;;17.70;77.70;;;;;;4977713;28;20027;-75
2023/06/27 05:07:42;;;;;;;19.77;7.20;;;17.70;77.50;;;;;;4989326;28;20045;-79
2023/06/27 05:10:08;;;;;;;22.13;7.55;;;18.00;78.00;;;;;;4984639;28;20457;-77
2023/06/27 05:12:33;;;;;;;19.17;6.18;;;18.90;76.20;;;;;;4979385;28;20399;-76
2023/06/27 05:14:59;;;;;;;19.10;6.47;;;20.30;70.90;;;;;;4988257;28;20517;-76
2023/06/27 05:17:24;;;;;;;14.93;4.65;;;21.60;66.90;;;;;;4987625;28;20037;-76
2023/06/27 05:19:50;;;;;;;16.95;6.15;;;22.60;63.60;;;;;;4990965;28;20045;-75
2023/06/27 05:22:16;;;;;;;17.80;5.70;;;23.30;59.50;;;;;;5001981;28;20358;-75
2023/06/27 05:24:42;;;;;;;14.27;5.65;;;23.70;58.20;;;;;;5005963;28;20069;-78
2023/06/27 05:27:07;;;;;;;15.98;5.78;;;24.30;57.00;;;;;;4999870;28;20068;-76
2023/06/27 05:29:33;;;;;;;17.67;5.43;;;24.70;55.00;;;;;;5004381;28;20462;-75
2023/06/27 05:31:58;;;;;;;24.98;5.72;;;24.90;54.20;;;;;;4999809;28;20029;-76
2023/06/27 05:34:25;;;;;;;14.82;5.30;;;25.30;52.80;;;;;;5004861;28;20084;-76
2023/06/27 05:36:50;;;;;;;16.75;4.90;;;25.70;52.30;;;;;;5003535;28;20433;-75
2023/06/27 05:39:16;;;;;;;17.60;5.97;;;25.50;52.80;;;;;;4999651;28;20050;-76
2023/06/27 05:41:42;;;;;;;16.15;5.25;;;25.70;52.10;;;;;;5001528;28;20034;-77
2023/06/27 05:44:07;;;;;;;16.13;5.97;;;26.00;51.50;;;;;;5003122;28;20030;-76
2023/06/27 05:46:38;;;;;;;17.40;6.03;;;25.60;51.20;;;;;;4996902;28;20364;-75
2023/06/27 05:49:04;;;;;;;14.75;5.25;;;25.40;52.00;;;;;;4999365;28;20558;-75
2023/06/27 05:51:30;;;;;;;15.93;5.38;;;25.50;52.30;;;;;;5005054;28;20124;-75
2023/06/27 05:53:56;;;;;;;16.20;5.93;;;24.80;54.30;;;;;;4995927;28;20502;-75
2023/06/27 05:56:22;;;;;;;18.25;6.20;;;24.10;55.80;;;;;;5005460;28;20418;-75
2023/06/27 05:58:47;;;;;;;17.08;6.97;;;23.40;57.60;;;;;;4999375;28;20502;-75
2023/06/27 06:01:13;;;;;;;19.02;6.10;;;22.90;58.90;;;;;;4998684;28;20034;-75
2023/06/27 06:03:40;;;;;;;17.45;6.90;;;22.10;60.90;;;;;;5001766;28;20038;-75
2023/06/27 06:06:06;;;;;;;18.83;6.40;;;21.80;62.90;;;;;;5001706;28;20030;-76
2023/06/27 06:08:32;;;;;;;15.93;5.75;;;21.40;64.50;;;;;;5008747;28;20042;-78
2023/06/27 06:10:58;;;;;;;18.20;6.43;;;21.40;64.70;;;;;;5004317;28;20052;-76
2023/06/27 06:13:23;;;;;;;16.52;5.72;;;21.00;65.80;;;;;;5000633;28;20046;-77
2023/06/27 06:15:49;;;;;;;23.10;6.38;;;20.70;66.80;;;;;;5002854;28;20461;-77
2023/06/27 06:18:15;;;;;;;19.52;6.20;;;20.60;67.50;;;;;;5005159;28;20096;-78
2023/06/27 06:20:40;;;;;;;21.63;6.50;;;20.60;67.80;;;;;;5003867;28;20483;-78
2023/06/27 06:23:06;;;;;;;22.10;7.03;;;20.70;67.50;;;;;;5007553;28;20041;-77
2023/06/27 06:25:32;;;;;;;20.13;6.97;;;20.80;67.60;;;;;;4999483;28;20034;-75
2023/06/27 06:27:57;;;;;;;18.13;6.28;;;21.00;67.50;;;;;;5002144;28;20038;-75
2023/06/27 06:30:23;;;;;;;15.77;5.97;;;21.10;66.60;;;;;;5000619;28;20030;-75
2023/06/27 06:32:48;;;;;;;12.07;4.60;;;21.30;66.60;;;;;;4997480;28;20096;-77
2023/06/27 06:35:14;;;;;;;13.55;5.45;;;21.50;65.90;;;;;;5002241;28;20030;-76
2023/06/27 06:37:40;;;;;;;17.08;5.18;;;21.40;65.10;;;;;;4997071;28;20053;-77
2023/06/27 06:40:06;;;;;;;14.73;5.65;;;21.30;65.80;;;;;;5004330;28;20383;-75
2023/06/27 06:42:31;;;;;;;15.70;5.28;;;21.30;65.60;;;;;;5000335;28;20030;-77
2023/06/27 06:44:58;;;;;;;12.65;4.72;;;21.40;64.80;;;;;;5000420;28;20072;-78
2023/06/27 06:47:24;;;;;;;16.55;4.95;;;21.50;64.30;;;;;;5002142;28;20052;-76
2023/06/27 06:49:50;;;;;;;14.10;5.55;;;21.40;65.20;;;;;;5006103;28;20410;-76
2023/06/27 06:52:15;;;;;;;14.05;4.80;;;21.50;64.50;;;;;;5002292;28;20034;-76
2023/06/27 06:54:43;;;;;;;13.57;4.35;;;21.50;64.70;;;;;;5005612;28;20557;-76
2023/06/27 06:57:10;;;;;;;10.50;4.30;;;21.70;63.70;;;;;;5000139;28;20443;-78
2023/06/27 06:59:36;;;;;;;13.40;4.28;;;21.60;63.60;;;;;;5007104;28;20032;-77
2023/06/27 07:02:01;;;;;;;11.73;5.10;;;21.80;63.30;;;;;;5006433;28;20041;-76
2023/06/27 07:04:27;;;;;;;13.95;4.47;;;21.80;63.40;;;;;;4996776;28;20021;-74
2023/06/27 07:06:53;;;;;;;14.55;4.05;;;21.90;63.10;;;;;;4995815;28;20085;-76
2023/06/27 07:09:18;;;;;;;10.70;3.70;;;22.10;62.20;;;;;;5004703;28;20042;-76
2023/06/27 07:11:44;;;;;;;12.32;3.88;;;22.10;61.80;;;;;;5002817;28;20042;-77
2023/06/27 07:14:10;;;;;;;12.32;4.00;;;22.30;60.10;;;;;;5005385;28;20135;-77
2023/06/27 07:16:36;;;;;;;15.73;4.60;;;22.30;60.40;;;;;;5008197;28;20113;-75
2023/06/27 07:19:02;;;;;;;12.15;4.05;;;22.30;60.80;;;;;;5010494;28;20042;-75
2023/06/27 07:21:28;;;;;;;16.63;3.70;;;22.30;60.40;;;;;;5003977;28;20458;-76
2023/06/27 07:23:54;;;;;;;12.15;3.65;;;22.20;60.30;;;;;;5004892;28;20037;-76
2023/06/27 07:26:19;;;;;;;9.15;3.28;;;22.30;59.90;;;;;;5006223;28;20033;-76
2023/06/27 07:28:45;;;;;;;14.02;3.20;;;22.50;57.50;;;;;;5006289;28;20433;-75
2023/06/27 07:31:10;;;;;;;11.50;2.92;;;22.70;57.00;;;;;;5005629;28;20415;-76
2023/06/27 07:33:36;;;;;;;8.95;3.17;;;22.90;56.70;;;;;;5003111;28;20770;-75
2023/06/27 07:36:02;;;;;;;8.90;2.60;;;22.80;55.00;;;;;;5000475;28;20041;-75
2023/06/27 07:38:27;;;;;;;13.10;3.35;;;22.80;55.80;;;;;;5008522;28;20030;-76
2023/06/27 07:40:53;;;;;;;12.70;2.97;;;23.00;55.70;;;;;;5006586;28;20034;-76
2023/06/27 07:43:19;;;;;;;10.13;3.00;;;23.00;54.60;;;;;;4997690;28;20025;-75
2023/06/27 07:45:45;;;;;;;9.10;2.72;;;23.10;55.20;;;;;;4987882;28;20105;-76
2023/06/27 07:48:10;;;;;;;7.78;2.45;;;23.00;55.40;;;;;;4992003;28;20031;-76
2023/06/27 07:50:36;;;;;;;6.85;2.45;;;23.00;53.20;;;;;;4996948;28;20363;-76
2023/06/27 07:53:02;;;;;;;8.63;2.55;;;23.20;52.80;;;;;;4980174;28;20628;-76
2023/06/27 07:55:27;;;;;;;8.48;2.58;;;23.40;53.60;;;;;;4977669;28;20037;-76
2023/06/27 07:57:53;;;;;;;9.02;2.67;;;23.50;50.60;;;;;;4986001;28;20113;-76
2023/06/27 08:00:20;;;;;;;5.80;2.03;;;23.70;49.80;;;;;;4986606;28;20034;-78
2023/06/27 08:02:45;;;;;;;6.55;2.17;;;23.90;50.20;;;;;;4980572;28;20047;-77
2023/06/27 08:05:11;;;;;;;6.72;2.38;;;24.10;48.40;;;;;;4982849;28;20577;-79
2023/06/27 08:07:37;;;;;;;8.55;2.10;;;24.10;48.20;;;;;;4982073;28;20035;-76
2023/06/27 08:10:04;;;;;;;9.80;2.35;;;24.20;48.50;;;;;;4982904;28;20034;-77
2023/06/27 08:12:30;;;;;;;9.90;2.92;;;24.30;48.00;;;;;;4987241;28;20121;-76
2023/06/27 08:14:56;;;;;;;8.00;2.15;;;24.30;48.40;;;;;;4983412;28;20402;-76
2023/06/27 08:17:21;;;;;;;11.90;2.58;;;24.30;48.60;;;;;;5000286;28;20112;-76
2023/06/27 08:19:47;;;;;;;10.48;2.95;;;24.30;49.70;;;;;;4997581;28;20390;-75
2023/06/27 08:22:13;;;;;;;10.73;2.58;;;24.40;48.70;;;;;;5011334;28;20038;-76
2023/06/27 08:24:40;;;;;;;10.05;3.22;;;24.40;48.60;;;;;;5009036;28;20077;-75
2023/06/27 08:27:06;;;;;;;11.43;3.08;;;24.70;46.90;;;;;;5008530;28;20079;-78
2023/06/27 08:29:33;;;;;;;8.57;2.38;;;24.90;46.20;;;;;;5007267;28;20112;-78
2023/06/27 08:31:59;;;;;;;8.57;2.40;;;25.20;44.90;;;;;;5000422;28;20133;-77
2023/06/27 08:34:26;;;;;;;8.20;2.30;;;25.10;46.40;;;;;;5007969;28;20025;-81
2023/06/27 08:36:52;;;;;;;10.68;2.28;;;24.70;45.50;;;;;;5014243;28;20042;-77
2023/06/27 08:39:18;;;;;;;10.65;2.75;;;24.60;46.50;;;;;;5008135;28;20224;-78
2023/06/27 08:41:46;;;;;;;7.53;2.67;;;24.40;46.50;;;;;;5005030;28;20092;-77
2023/06/27 08:44:11;;;;;;;7.22;2.53;;;24.20;45.90;;;;;;5005175;28;20026;-76
2023/06/27 08:46:39;;;;;;;9.75;2.63;;;23.70;45.90;;;;;;5008877;28;20034;-75
2023/06/27 08:49:10;;;;;;;9.10;2.42;;;23.60;46.60;;;;;;5003349;28;20038;-77
2023/06/27 08:51:39;;;;;;;9.15;2.83;;;23.70;47.10;;;;;;5006060;28;20034;-76
2023/06/27 08:54:23;;;;;;;10.15;2.15;;;23.90;47.90;;;;;;5001156;28;20036;-77
2023/06/27 08:56:50;;;;;;;5.30;1.90;;;24.10;44.50;;;;;;5004051;28;20145;-78
2023/06/27 08:59:19;;;;;;;8.45;2.28;;;24.10;44.40;;;;;;5013417;28;20042;-77
2023/06/27 09:01:46;;;;;;;7.95;2.13;;;24.10;45.90;;;;;;5019863;28;20077;-78
2023/06/27 09:04:12;;;;;;;6.80;2.70;;;24.30;45.30;;;;;;5002286;28;20034;-76
2023/06/27 09:06:40;;;;;;;9.20;2.50;;;24.50;44.90;;;;;;5008335;28;20096;-77
2023/06/27 09:09:06;;;;;;;6.80;1.95;;;25.00;44.60;;;;;;5005338;28;20034;-77
2023/06/27 09:11:32;;;;;;;7.93;2.40;;;25.10;44.10;;;;;;5004275;28;20029;-77
2023/06/27 09:13:58;;;;;;;12.60;2.47;;;25.50;41.70;;;;;;5005451;28;20068;-76
2023/06/27 09:16:24;;;;;;;12.15;2.78;;;25.70;41.40;;;;;;5005268;28;20034;-76
2023/06/27 09:18:50;;;;;;;6.82;1.98;;;25.80;42.90;;;;;;5013601;28;20517;-77
2023/06/27 09:21:16;;;;;;;7.70;2.10;;;25.60;42.50;;;;;;5013899;28;20036;-77
2023/06/27 09:23:43;;;;;;;6.72;1.80;;;25.60;43.10;;;;;;5001812;28;20491;-77
2023/06/27 09:26:10;;;;;;;9.98;2.55;;;25.60;43.20;;;;;;5003918;28;20022;-76
2023/06/27 09:28:45;;;;;;;6.90;2.22;;;25.30;43.10;;;;;;5009688;28;20033;-76
2023/06/27 09:31:14;;;;;;;7.53;2.35;;;25.10;42.50;;;;;;5002846;28;20104;-77
2023/06/27 09:33:44;;;;;;;5.72;1.95;;;25.10;42.80;;;;;;5004624;28;20045;-76
2023/06/27 09:36:10;;;;;;;7.03;2.22;;;25.30;43.30;;;;;;5002643;28;20035;-77
2023/06/27 09:38:37;;;;;;;7.05;1.80;;;25.30;43.00;;;;;;5009694;28;20029;-77
2023/06/27 09:41:06;;;;;;;4.47;1.83;;;24.60;42.40;;;;;;5021702;28;20137;-76
2023/06/27 09:43:35;;;;;;;8.18;2.00;;;23.90;42.50;;;;;;5009605;28;20286;-77
2023/06/27 09:46:02;;;;;;;5.93;1.90;;;23.70;43.50;;;;;;5004357;28;20105;-76
2023/06/27 09:48:29;;;;;;;8.32;2.22;;;23.90;43.10;;;;;;5003530;28;20032;-77
2023/06/27 09:51:03;;;;;;;5.15;1.73;;;24.40;43.90;;;;;;5010847;28;20056;-77
2023/06/27 09:53:30;;;;;;;;;;;24.70;42.20;;;;;;5002861;28;20025;-77
2023/06/27 09:55:57;;;;;;;4.97;1.73;;;24.70;41.80;;;;;;5009958;28;19920;-77
2023/06/27 09:58:41;;;;;;;7.10;2.03;;;24.80;41.30;;;;;;5010785;28;20041;-83
2023/06/27 10:01:06;;;;;;;9.35;2.20;;;24.90;40.60;;;;;;5003356;28;20030;-74
2023/06/27 10:03:33;;;;;;;5.82;1.52;;;25.10;41.20;;;;;;5009789;28;20164;-77
2023/06/27 10:06:02;;;;;;;4.72;1.70;;;25.40;41.80;;;;;;4997800;28;20026;-74
2023/06/27 10:08:28;;;;;;;6.53;1.60;;;26.10;39.00;;;;;;5007521;28;20042;-75
2023/06/27 10:11:00;;;;;;;7.90;2.47;;;26.30;39.20;;;;;;5010938;28;20072;-75
2023/06/27 10:13:26;;;;;;;7.55;2.25;;;26.50;40.00;;;;;;4984347;28;20058;-78
2023/06/27 10:15:52;;;;;;;4.82;1.95;;;26.50;39.00;;;;;;4982314;28;20119;-78
2023/06/27 10:18:18;;;;;;;6.82;2.50;;;26.20;39.40;;;;;;4984220;28;20026;-80
2023/06/27 10:20:44;;;;;;;6.65;2.08;;;25.90;40.20;;;;;;4979436;28;20050;-76
2023/06/27 10:23:11;;;;;;;8.20;2.15;;;25.80;41.20;;;;;;4982831;28;20045;-76
2023/06/27 10:25:38;;;;;;;6.55;2.20;;;25.40;41.50;;;;;;4985934;28;20525;-77
2023/06/27 10:28:07;;;;;;;7.45;2.67;;;25.50;42.20;;;;;;4980930;28;20046;-77
2023/06/27 10:30:37;;;;;;;10.13;2.92;;;25.20;41.70;;;;;;4981806;28;20598;-76
2023/06/27 10:33:18;;;;;;;7.13;2.22;;;25.00;42.60;;;;;;4985774;28;20038;-78
2023/06/27 10:35:51;;;;;;;8.18;2.13;;;24.80;42.80;;;;;;4978163;28;20035;-76
2023/06/27 10:38:18;;;;;;;7.53;2.00;;;25.10;42.50;;;;;;4986456;28;20076;-77
2023/06/27 10:41:09;;;;;;;8.38;2.38;;;25.50;41.70;;;;;;4978640;28;20046;-75
2023/06/27 10:43:52;;;;;;;5.85;2.40;;;25.70;41.80;;;;;;4981212;28;20142;-75
2023/06/27 10:46:22;;;;;;;8.52;2.50;;;25.70;39.90;;;;;;4984341;28;20034;-75
2023/06/27 10:49:04;;;;;;;8.73;2.25;;;25.60;41.50;;;;;;4975950;28;20026;-77
2023/06/27 10:51:41;;;;;;;6.25;2.10;;;26.00;40.40;;;;;;4987035;28;20076;-79
2023/06/27 10:54:14;;;;;;;6.28;2.00;;;26.10;40.60;;;;;;5006742;28;20053;-78
2023/06/27 10:56:53;;;;;;;10.95;3.00;;;26.40;41.10;;;;;;5002549;28;20572;-76
2023/06/27 10:59:23;;;;;;;8.30;2.60;;;26.10;40.40;;;;;;5009682;28;20041;-76
2023/06/27 11:02:02;;;;;;;9.85;2.60;;;25.50;40.80;;;;;;5003778;28;20324;-75
2023/06/27 11:04:42;;;;;;;6.88;2.20;;;25.00;41.80;;;;;;4997204;28;20077;-77
2023/06/27 11:07:21;;;;;;;9.45;2.17;;;25.20;42.90;;;;;;4993293;28;20046;-76
2023/06/27 11:09:53;;;;;;;9.20;2.28;;;25.40;41.30;;;;;;4991947;28;20057;-77
2023/06/27 11:12:21;;;;;;;6.40;2.35;;;25.40;41.60;;;;;;4993798;28;20042;-77
2023/06/27 11:14:48;;;;;;;9.43;2.25;;;25.10;42.70;;;;;;4997961;28;20053;-77
2023/06/27 11:17:16;;;;;;;8.35;2.35;;;24.80;43.10;;;;;;4994515;28;20046;-78
2023/06/27 11:19:42;;;;;;;9.98;2.63;;;25.00;42.40;;;;;;4994077;28;20030;-77
2023/06/27 11:22:09;;;;;;;8.50;2.30;;;25.10;42.50;;;;;;4992898;28;20030;-83
2023/06/27 11:24:35;;;;;;;7.43;2.13;;;25.00;42.80;;;;;;4993401;28;20061;-78
2023/06/27 11:27:05;;;;;;;8.73;2.50;;;25.60;42.80;;;;;;4991348;28;20221;-80
2023/06/27 11:29:32;;;;;;;8.93;2.63;;;25.50;42.30;;;;;;4993351;28;20045;-80
2023/06/27 11:31:58;;;;;;;7.32;2.20;;;25.60;41.20;;;;;;4991780;28;20045;-80
2023/06/27 11:34:24;;;;;;;7.45;2.30;;;25.50;42.10;;;;;;4994303;28;20029;-78
2023/06/27 11:36:50;;;;;;;7.97;2.47;;;25.50;40.90;;;;;;4995133;28;20288;-77
2023/06/27 11:39:16;;;;;;;7.88;2.42;;;25.30;42.70;;;;;;5007426;28;20026;-77
2023/06/27 11:41:43;;;;;;;7.13;2.40;;;25.10;42.40;;;;;;5004591;28;20038;-85
2023/06/27 11:44:14;;;;;;;8.18;2.28;;;25.10;44.10;;;;;;5010533;28;20025;-82
2023/06/27 11:46:54;;;;;;;9.52;2.80;;;25.30;43.60;;;;;;5016005;28;20084;-78
2023/06/27 11:49:24;;;;;;;7.75;2.20;;;25.50;42.70;;;;;;5007473;28;20057;-78
2023/06/27 11:51:51;;;;;;;7.07;2.50;;;25.30;43.00;;;;;;5011149;28;20540;-78
2023/06/27 11:54:18;;;;;;;7.22;2.45;;;24.80;43.70;;;;;;5007938;28;20387;-77
2023/06/27 11:56:45;;;;;;;6.32;2.53;;;24.90;43.80;;;;;;5001360;28;20084;-76
2023/06/27 11:59:10;;;;;;;11.98;2.83;;;25.10;43.40;;;;;;5002851;28;20404;-77
2023/06/27 12:01:40;;;;;;;8.85;2.65;;;25.00;43.30;;;;;;5008204;28;20030;-78
2023/06/27 12:04:14;;;;;;;7.78;2.47;;;25.10;43.90;;;;;;5005339;28;20018;-78
2023/06/27 12:06:40;;;;;;;9.23;2.60;;;25.60;44.20;;;;;;5008226;28;20121;-77
2023/06/27 12:09:22;;;;;;;10.95;2.53;;;25.80;42.70;;;;;;5003291;28;20027;-78
2023/06/27 12:11:59;;;;;;;8.40;2.50;;;25.70;41.30;;;;;;5008635;28;20112;-78
2023/06/27 12:14:26;;;;;;;6.93;2.75;;;25.60;41.60;;;;;;5005187;28;20053;-80
2023/06/27 12:16:55;;;;;;;9.27;2.95;;;26.00;41.80;;;;;;4998849;28;20455;-77
2023/06/27 12:19:22;;;;;;;5.45;2.05;;;26.40;41.60;;;;;;5009345;28;20497;-76
2023/06/27 12:21:49;;;;;;;8.45;2.30;;;26.30;41.10;;;;;;5007897;28;20467;-77
2023/06/27 12:24:15;;;;;;;9.68;2.97;;;26.50;39.80;;;;;;5009553;28;20044;-81
2023/06/27 12:26:41;;;;;;;7.68;2.70;;;26.30;41.00;;;;;;5006869;28;20675;-81
2023/06/27 12:29:08;;;;;;;5.95;2.58;;;26.20;39.60;;;;;;5004594;28;20078;-79
2023/06/27 12:31:37;;;;;;;9.25;2.83;;;26.60;39.30;;;;;;5004668;28;20042;-78
2023/06/27 12:34:03;;;;;;;9.25;2.50;;;26.90;39.10;;;;;;5005819;28;20022;-78
2023/06/27 12:36:32;;;;;;;7.90;2.10;;;27.20;38.60;;;;;;5001679;28;20038;-82
2023/06/27 12:38:58;;;;;;;8.55;2.17;;;27.60;38.00;;;;;;5005351;28;20022;-78
2023/06/27 12:41:25;;;;;;;6.95;2.13;;;27.30;36.20;;;;;;4999031;28;20125;-79
2023/06/27 12:43:51;;;;;;;6.93;2.20;;;27.10;37.50;;;;;;5010815;28;20017;-83
2023/06/27 12:46:17;;;;;;;6.88;2.13;;;27.00;38.00;;;;;;5002201;28;20563;-83
2023/06/27 12:48:44;;;;;;;6.32;2.00;;;27.10;37.90;;;;;;4994351;28;20117;-82
2023/06/27 12:51:13;;;;;;;7.35;2.28;;;26.50;38.20;;;;;;5006859;28;20046;-76
2023/06/27 12:53:39;;;;;;;9.82;2.10;;;26.40;38.80;;;;;;5005336;28;20030;-76
2023/06/27 12:56:05;;;;;;;7.50;2.20;;;26.20;38.40;;;;;;5007149;28;20433;-78